createdAt,value
2022-07-31T00:00:13.214Z,1.35
2022-07-31T00:02:39.616Z,1.55
2022-07-31T00:05:06.347Z,1.25
2022-07-31T00:07:40.430Z,1.40
2022-07-31T00:10:07.480Z,1.63
2022-07-31T00:12:34.965Z,1.42
2022-07-31T00:15:02.018Z,1.23
2022-07-31T00:17:28.469Z,1.38
2022-07-31T00:19:54.884Z,1.33
2022-07-31T00:22:21.308Z,1.30
2022-07-31T00:24:47.724Z,1.48
2022-07-31T00:27:14.135Z,1.30
2022-07-31T00:29:40.550Z,1.38
2022-07-31T00:32:06.944Z,1.50
2022-07-31T00:34:33.381Z,1.40
2022-07-31T00:37:10.410Z,1.15
2022-07-31T00:39:36.942Z,1.30
2022-07-31T00:42:03.356Z,1.75
2022-07-31T00:44:29.794Z,1.52
2022-07-31T00:46:57.932Z,1.23
2022-07-31T00:49:24.710Z,1.23
2022-07-31T00:51:51.855Z,1.25
2022-07-31T00:54:23.020Z,1.08
2022-07-31T00:56:50.171Z,1.20
2022-07-31T00:59:16.885Z,1.67
2022-07-31T01:01:50.979Z,1.77
2022-07-31T01:04:19.070Z,1.48
2022-07-31T01:06:46.914Z,1.48
2022-07-31T01:09:19.593Z,1.23
2022-07-31T01:11:51.382Z,1.35
2022-07-31T01:14:19.747Z,1.70
2022-07-31T01:16:50.219Z,1.50
2022-07-31T01:19:23.025Z,1.25
2022-07-31T01:22:07.288Z,1.30
2022-07-31T01:25:03.137Z,1.70
2022-07-31T01:27:49.673Z,1.63
2022-07-31T01:30:16.817Z,1.55
2022-07-31T01:32:46.851Z,1.60
2022-07-31T01:35:20.580Z,1.40
2022-07-31T01:38:01.697Z,1.20
2022-07-31T01:40:28.122Z,1.20
2022-07-31T01:43:02.693Z,1.40
2022-07-31T01:45:30.065Z,1.40
2022-07-31T01:47:57.753Z,1.42
2022-07-31T01:50:42.800Z,1.58
2022-07-31T01:53:12.837Z,1.35
2022-07-31T01:56:01.871Z,1.50
2022-07-31T01:58:28.367Z,1.60
2022-07-31T02:00:58.308Z,1.50
2022-07-31T02:03:44.449Z,1.50
2022-07-31T02:06:15.940Z,1.02
2022-07-31T02:08:46.161Z,1.63
2022-07-31T02:11:14.133Z,1.73
2022-07-31T02:13:40.726Z,1.40
2022-07-31T02:16:07.903Z,1.52
2022-07-31T02:18:34.865Z,1.30
2022-07-31T02:21:01.408Z,1.63
2022-07-31T02:23:27.843Z,1.55
2022-07-31T02:25:54.402Z,1.65
2022-07-31T02:28:22.237Z,1.60
2022-07-31T02:30:49.787Z,1.42
2022-07-31T02:33:21.721Z,1.48
2022-07-31T02:35:49.332Z,1.73
2022-07-31T02:38:22.736Z,1.45
2022-07-31T02:40:55.472Z,1.67
2022-07-31T02:43:22.144Z,1.60
2022-07-31T02:45:48.818Z,1.30
2022-07-31T02:48:15.735Z,1.73
2022-07-31T02:50:42.789Z,1.60
2022-07-31T02:53:09.272Z,1.83
2022-07-31T02:55:36.035Z,1.90
2022-07-31T02:58:03.608Z,1.58
2022-07-31T03:00:30.932Z,1.73
2022-07-31T03:02:57.992Z,1.50
2022-07-31T03:05:24.794Z,1.70
2022-07-31T03:07:52.364Z,1.88
2022-07-31T03:10:18.912Z,1.60
2022-07-31T03:12:50.195Z,2.00
2022-07-31T03:15:17.360Z,2.00
2022-07-31T03:17:45.237Z,2.10
2022-07-31T03:20:13.924Z,1.90
2022-07-31T03:22:40.598Z,2.10
2022-07-31T03:25:07.407Z,1.80
2022-07-31T03:27:33.894Z,1.60
2022-07-31T03:30:00.402Z,2.17
2022-07-31T03:32:26.803Z,1.70
2022-07-31T03:34:53.371Z,1.73
2022-07-31T03:37:20.086Z,1.60
2022-07-31T03:39:46.643Z,1.80
2022-07-31T03:42:18.604Z,1.73
2022-07-31T03:44:46.473Z,1.73
2022-07-31T03:47:13.046Z,1.67
2022-07-31T03:49:43.243Z,1.48
2022-07-31T03:52:12.318Z,1.90
2022-07-31T03:54:39.058Z,1.85
2022-07-31T03:57:06.266Z,2.25
2022-07-31T03:59:39.875Z,1.80
2022-07-31T04:02:14.553Z,1.80
2022-07-31T04:04:44.280Z,1.88
2022-07-31T04:07:10.871Z,2.03
2022-07-31T04:09:38.568Z,1.40
2022-07-31T04:12:05.880Z,1.40
2022-07-31T04:14:33.022Z,1.60
2022-07-31T04:16:59.470Z,1.60
2022-07-31T04:19:25.946Z,1.33
2022-07-31T04:21:52.421Z,1.60
2022-07-31T04:24:20.882Z,1.42
2022-07-31T04:26:49.333Z,1.42
2022-07-31T04:29:15.886Z,1.45
2022-07-31T04:31:42.301Z,1.70
2022-07-31T04:34:08.835Z,1.90
2022-07-31T04:36:35.255Z,1.52
2022-07-31T04:39:03.068Z,1.45
2022-07-31T04:41:29.556Z,1.63
2022-07-31T04:43:57.833Z,1.80
2022-07-31T04:46:24.594Z,1.90
2022-07-31T04:48:51.063Z,1.48
2022-07-31T04:51:18.421Z,2.10
2022-07-31T04:53:45.458Z,1.60
2022-07-31T04:56:31.002Z,1.77
2022-07-31T04:58:57.490Z,2.00
2022-07-31T05:01:24.101Z,1.58
2022-07-31T05:03:50.578Z,1.70
2022-07-31T05:06:17.030Z,1.73
2022-07-31T05:08:43.949Z,2.38
2022-07-31T05:11:22.413Z,1.48
2022-07-31T05:13:56.148Z,1.45
2022-07-31T05:16:22.809Z,1.48
2022-07-31T05:18:49.537Z,1.30
2022-07-31T05:21:16.385Z,1.55
2022-07-31T05:23:43.685Z,1.33
2022-07-31T05:26:10.394Z,1.30
2022-07-31T05:28:37.293Z,1.58
2022-07-31T05:31:04.329Z,1.65
2022-07-31T05:33:30.841Z,2.03
2022-07-31T05:35:57.760Z,2.53
2022-07-31T05:38:25.349Z,1.23
2022-07-31T05:40:51.803Z,1.52
2022-07-31T05:43:18.661Z,1.70
2022-07-31T05:45:47.027Z,1.90
2022-07-31T05:48:14.279Z,1.23
2022-07-31T05:50:44.394Z,1.75
2022-07-31T05:53:15.228Z,1.90
2022-07-31T05:55:42.294Z,1.65
2022-07-31T05:58:11.527Z,1.20
2022-07-31T06:00:40.409Z,1.70
2022-07-31T06:03:07.086Z,1.40
2022-07-31T06:05:33.594Z,1.25
2022-07-31T06:08:00.579Z,1.60
2022-07-31T06:10:28.000Z,1.50
2022-07-31T06:12:54.873Z,1.60
2022-07-31T06:15:21.286Z,1.55
2022-07-31T06:17:47.839Z,1.33
2022-07-31T06:20:14.402Z,1.10
2022-07-31T06:22:42.625Z,1.10
2022-07-31T06:25:09.884Z,1.60
2022-07-31T06:27:38.671Z,1.60
2022-07-31T06:30:08.341Z,1.38
2022-07-31T06:32:35.265Z,1.77
2022-07-31T06:35:02.198Z,1.45
2022-07-31T06:37:29.492Z,1.40
2022-07-31T06:39:56.702Z,1.60
2022-07-31T06:42:23.715Z,1.40
2022-07-31T06:44:50.225Z,1.20
2022-07-31T06:47:17.479Z,1.40
2022-07-31T06:49:44.036Z,1.33
2022-07-31T06:52:10.910Z,1.63
2022-07-31T06:54:37.355Z,1.42
2022-07-31T06:57:04.051Z,1.73
2022-07-31T06:59:40.368Z,1.63
2022-07-31T07:02:07.768Z,1.52
2022-07-31T07:05:04.409Z,1.40
2022-07-31T07:07:22.142Z,1.65
2022-07-31T07:09:48.741Z,1.52
2022-07-31T07:12:16.624Z,1.67
2022-07-31T07:14:44.117Z,1.25
2022-07-31T07:17:10.532Z,1.25
2022-07-31T07:19:39.339Z,1.38
2022-07-31T07:22:06.188Z,1.23
2022-07-31T07:24:32.993Z,1.42
2022-07-31T07:26:59.458Z,1.30
2022-07-31T07:29:25.891Z,1.17
2022-07-31T07:31:52.362Z,1.70
2022-07-31T07:34:18.818Z,1.40
2022-07-31T07:36:45.447Z,1.88
2022-07-31T07:39:11.924Z,1.90
2022-07-31T07:41:38.750Z,1.13
2022-07-31T07:44:06.462Z,1.38
2022-07-31T07:46:33.147Z,1.50
2022-07-31T07:48:59.736Z,1.55
2022-07-31T07:51:26.209Z,1.80
2022-07-31T07:53:52.598Z,1.90
2022-07-31T07:56:19.043Z,1.35
2022-07-31T07:58:45.481Z,1.60
2022-07-31T08:01:12.110Z,1.35
2022-07-31T08:03:50.247Z,1.65
2022-07-31T08:06:18.549Z,1.52
2022-07-31T08:08:45.086Z,1.88
2022-07-31T08:11:17.510Z,1.42
2022-07-31T08:13:49.670Z,1.30
2022-07-31T08:16:16.461Z,1.40
2022-07-31T08:18:42.977Z,1.42
2022-07-31T08:21:09.416Z,1.35
2022-07-31T08:23:35.859Z,1.60
2022-07-31T08:26:04.413Z,1.13
2022-07-31T08:28:33.031Z,1.60
2022-07-31T08:31:00.039Z,1.73
2022-07-31T08:33:26.541Z,1.30
2022-07-31T08:35:53.006Z,1.45
2022-07-31T08:38:20.698Z,1.70
2022-07-31T08:40:47.375Z,1.70
2022-07-31T08:44:01.409Z,1.45
2022-07-31T08:46:02.892Z,1.67
2022-07-31T08:48:31.101Z,1.40
2022-07-31T08:50:58.387Z,1.42
2022-07-31T08:53:25.276Z,1.38
2022-07-31T08:55:56.289Z,1.88
2022-07-31T08:58:24.606Z,1.85
2022-07-31T09:00:51.377Z,1.70
2022-07-31T09:03:18.029Z,1.35
2022-07-31T09:05:44.480Z,1.23
2022-07-31T09:08:14.821Z,1.42
2022-07-31T09:10:45.039Z,1.00
2022-07-31T09:13:19.069Z,1.30
2022-07-31T09:15:46.457Z,1.73
2022-07-31T09:18:21.323Z,1.15
2022-07-31T09:20:58.167Z,1.40
2022-07-31T09:23:25.402Z,1.65
2022-07-31T09:26:03.150Z,1.10
2022-07-31T09:28:34.013Z,1.35
2022-07-31T09:31:00.575Z,1.67
2022-07-31T09:33:28.307Z,1.23
2022-07-31T09:35:55.200Z,1.42
2022-07-31T09:38:23.407Z,1.58
2022-07-31T09:40:55.448Z,1.20
2022-07-31T09:43:31.680Z,0.95
2022-07-31T09:46:01.695Z,1.35
2022-07-31T09:48:28.836Z,1.40
2022-07-31T09:50:59.766Z,1.35
2022-07-31T09:53:26.686Z,1.20
2022-07-31T09:55:53.778Z,1.40
2022-07-31T09:58:21.061Z,1.30
2022-07-31T10:00:48.186Z,1.50
2022-07-31T10:03:17.547Z,1.30
2022-07-31T10:05:44.813Z,1.23
2022-07-31T10:08:17.320Z,1.50
2022-07-31T10:10:44.346Z,1.27
2022-07-31T10:13:13.244Z,1.55
2022-07-31T10:15:39.899Z,1.63
2022-07-31T10:18:08.567Z,1.20
2022-07-31T10:20:35.462Z,1.00
2022-07-31T10:23:05.631Z,1.38
2022-07-31T10:25:34.259Z,1.92
2022-07-31T10:28:01.237Z,1.40
2022-07-31T10:30:28.789Z,1.15
2022-07-31T10:32:55.646Z,1.13
2022-07-31T10:35:22.716Z,1.40
2022-07-31T10:38:01.336Z,1.10
2022-07-31T10:40:42.933Z,0.98
2022-07-31T10:43:20.477Z,0.98
2022-07-31T10:45:47.925Z,1.10
2022-07-31T10:48:14.521Z,1.02
2022-07-31T10:50:41.438Z,0.95
2022-07-31T10:53:08.959Z,1.42
2022-07-31T10:55:35.581Z,0.85
2022-07-31T10:58:15.527Z,1.30
2022-07-31T11:00:42.630Z,1.00
2022-07-31T11:03:13.326Z,1.00
2022-07-31T11:06:00.622Z,0.98
2022-07-31T11:08:26.720Z,0.82
2022-07-31T11:10:53.941Z,1.13
2022-07-31T11:13:21.347Z,0.90
2022-07-31T11:16:06.509Z,0.82
2022-07-31T11:18:34.637Z,0.80
2022-07-31T11:21:17.390Z,0.88
2022-07-31T11:23:57.605Z,0.85
2022-07-31T11:26:33.390Z,1.23
2022-07-31T11:30:01.612Z,0.80
2022-07-31T11:31:55.610Z,1.17
2022-07-31T11:34:22.112Z,0.80
2022-07-31T11:36:51.434Z,0.98
2022-07-31T11:39:18.390Z,0.98
2022-07-31T11:41:45.607Z,0.77
2022-07-31T11:44:12.238Z,0.98
2022-07-31T11:46:38.699Z,1.00
2022-07-31T11:49:05.315Z,0.70
2022-07-31T11:51:31.851Z,0.70
2022-07-31T11:53:59.181Z,0.70
2022-07-31T11:56:26.563Z,0.90
2022-07-31T11:58:53.906Z,0.70
2022-07-31T12:01:24.143Z,0.85
2022-07-31T12:03:50.610Z,0.90
2022-07-31T12:06:18.652Z,0.50
2022-07-31T12:08:46.169Z,0.90
2022-07-31T12:11:12.964Z,0.63
2022-07-31T12:13:39.570Z,1.10
2022-07-31T12:16:08.017Z,0.95
2022-07-31T12:18:58.711Z,0.60
2022-07-31T12:21:33.310Z,0.60
2022-07-31T12:24:00.738Z,0.57
2022-07-31T12:26:28.020Z,1.00
2022-07-31T12:29:00.246Z,0.43
2022-07-31T12:31:27.086Z,0.57
2022-07-31T12:33:53.613Z,0.88
2022-07-31T12:36:20.067Z,1.00
2022-07-31T12:38:58.299Z,0.60
2022-07-31T12:41:24.782Z,0.65
2022-07-31T12:43:52.723Z,0.60
2022-07-31T12:46:20.530Z,0.68
2022-07-31T12:48:47.212Z,0.68
2022-07-31T12:51:13.708Z,0.85
2022-07-31T12:53:40.120Z,0.70
2022-07-31T12:56:10.875Z,0.55
2022-07-31T12:58:37.369Z,0.70
2022-07-31T13:01:03.792Z,0.52
2022-07-31T13:03:39.013Z,0.75
2022-07-31T13:06:12.686Z,0.82
2022-07-31T13:08:39.146Z,0.50
2022-07-31T13:11:05.558Z,0.60
2022-07-31T13:13:32.027Z,0.85
2022-07-31T13:15:59.614Z,0.60
2022-07-31T13:18:26.274Z,0.70
2022-07-31T13:20:52.721Z,0.43
2022-07-31T13:23:21.384Z,0.60
2022-07-31T13:25:47.821Z,0.75
2022-07-31T13:28:14.262Z,0.68
2022-07-31T13:30:40.755Z,0.70
2022-07-31T13:33:07.318Z,0.55
2022-07-31T13:35:34.238Z,0.70
2022-07-31T13:38:01.571Z,0.77
2022-07-31T13:40:46.873Z,0.88
2022-07-31T13:43:13.874Z,0.68
2022-07-31T13:45:40.306Z,0.55
2022-07-31T13:48:09.400Z,0.75
2022-07-31T13:50:37.486Z,0.77
2022-07-31T13:53:03.968Z,0.65
2022-07-31T13:55:30.566Z,0.70
2022-07-31T13:57:57.202Z,0.65
2022-07-31T14:00:26.482Z,0.80
2022-07-31T14:02:52.982Z,0.80
2022-07-31T14:05:19.457Z,0.60
2022-07-31T14:07:51.744Z,0.98
2022-07-31T14:10:20.876Z,0.77
2022-07-31T14:12:48.046Z,0.70
2022-07-31T14:15:14.517Z,0.50
2022-07-31T14:17:40.934Z,0.60
2022-07-31T14:20:07.881Z,0.32
2022-07-31T14:22:34.344Z,0.60
2022-07-31T14:25:00.838Z,1.02
2022-07-31T14:27:27.281Z,0.70
2022-07-31T14:29:53.694Z,0.60
2022-07-31T14:32:21.978Z,0.73
2022-07-31T14:34:51.576Z,0.65
2022-07-31T14:37:20.042Z,0.80
2022-07-31T14:39:46.603Z,0.93
2022-07-31T14:42:13.076Z,0.63
2022-07-31T14:44:41.986Z,0.40
2022-07-31T14:47:09.646Z,1.00
2022-07-31T14:50:07.047Z,0.73
2022-07-31T14:52:22.870Z,0.63
2022-07-31T14:54:49.394Z,0.82
2022-07-31T14:57:20.108Z,0.90
2022-07-31T14:59:48.944Z,0.85
2022-07-31T15:02:19.853Z,0.73
2022-07-31T15:04:48.532Z,0.80
2022-07-31T15:07:35.033Z,0.60
2022-07-31T15:10:06.664Z,0.73
2022-07-31T15:12:33.354Z,0.88
2022-07-31T15:14:59.833Z,0.95
2022-07-31T15:17:26.627Z,0.50
2022-07-31T15:19:53.063Z,0.60
2022-07-31T15:22:19.543Z,0.80
2022-07-31T15:24:49.247Z,0.90
2022-07-31T15:27:16.651Z,0.82
2022-07-31T15:30:03.931Z,0.65
2022-07-31T15:32:29.651Z,1.25
2022-07-31T15:34:56.117Z,0.80
2022-07-31T15:37:22.839Z,0.80
2022-07-31T15:40:03.902Z,0.90
2022-07-31T15:42:34.645Z,1.35
2022-07-31T15:45:01.268Z,0.90
2022-07-31T15:47:27.725Z,1.15
2022-07-31T15:49:54.188Z,0.90
2022-07-31T15:52:20.633Z,1.42
2022-07-31T15:54:47.184Z,1.02
2022-07-31T15:57:18.807Z,0.98
2022-07-31T15:59:45.217Z,1.10
2022-07-31T16:02:11.635Z,1.17
2022-07-31T16:04:44.949Z,1.00
2022-07-31T16:08:31.722Z,1.05
2022-07-31T16:10:15.707Z,1.20
2022-07-31T16:12:47.272Z,1.00
2022-07-31T16:15:14.088Z,1.20
2022-07-31T16:17:40.696Z,0.95
2022-07-31T16:20:08.914Z,1.08
2022-07-31T16:22:35.923Z,1.05
2022-07-31T16:25:02.409Z,0.90
2022-07-31T16:27:28.827Z,1.00
2022-07-31T16:30:01.343Z,1.00
2022-07-31T16:32:29.146Z,0.90
2022-07-31T16:35:00.192Z,1.00
2022-07-31T16:37:51.268Z,0.65
2022-07-31T16:40:28.175Z,0.60
2022-07-31T16:42:58.179Z,1.15
2022-07-31T16:45:24.564Z,1.67
2022-07-31T16:47:52.006Z,0.82
2022-07-31T16:50:18.820Z,0.77
2022-07-31T16:52:45.232Z,1.17
2022-07-31T16:55:11.671Z,0.85
2022-07-31T16:57:38.240Z,0.90
2022-07-31T17:00:05.043Z,0.88
2022-07-31T17:02:31.464Z,0.60
2022-07-31T17:04:57.843Z,1.00
2022-07-31T17:07:24.274Z,0.75
2022-07-31T17:09:50.697Z,1.08
2022-07-31T17:12:17.789Z,1.00
2022-07-31T17:14:44.227Z,1.00
2022-07-31T17:17:11.525Z,0.90
2022-07-31T17:19:45.224Z,0.90
2022-07-31T17:22:18.026Z,0.90
2022-07-31T17:24:50.218Z,0.70
2022-07-31T17:27:17.367Z,1.10
2022-07-31T17:29:43.914Z,1.27
2022-07-31T17:32:11.170Z,0.98
2022-07-31T17:34:38.507Z,0.90
2022-07-31T17:37:05.334Z,1.00
2022-07-31T17:39:32.226Z,1.13
2022-07-31T17:41:59.014Z,0.93
2022-07-31T17:44:25.617Z,0.98
2022-07-31T17:46:52.151Z,1.20
2022-07-31T17:49:20.384Z,1.05
2022-07-31T17:52:07.990Z,0.85
2022-07-31T17:54:34.254Z,1.02
2022-07-31T17:57:00.751Z,1.20
2022-07-31T17:59:27.824Z,1.05
2022-07-31T18:02:00.082Z,0.80
2022-07-31T18:04:27.743Z,1.48
2022-07-31T18:06:54.883Z,1.20
2022-07-31T18:09:23.617Z,1.00
2022-07-31T18:11:50.978Z,1.20
2022-07-31T18:14:18.210Z,1.38
2022-07-31T18:16:45.318Z,0.95
2022-07-31T18:19:11.806Z,1.25
2022-07-31T18:21:38.924Z,1.02
2022-07-31T18:24:05.708Z,1.40
2022-07-31T18:26:32.226Z,1.30
2022-07-31T18:28:58.659Z,1.35
2022-07-31T18:31:34.551Z,0.93
2022-07-31T18:34:03.032Z,1.08
2022-07-31T18:36:29.458Z,1.55
2022-07-31T18:38:57.711Z,1.10
2022-07-31T18:41:24.568Z,1.08
2022-07-31T18:43:51.051Z,1.70
2022-07-31T18:46:17.502Z,1.30
2022-07-31T18:48:43.955Z,1.13
2022-07-31T18:51:10.460Z,1.80
2022-07-31T18:53:36.970Z,0.90
2022-07-31T18:56:03.535Z,0.85
2022-07-31T18:58:30.709Z,1.20
2022-07-31T19:00:57.158Z,1.42
2022-07-31T19:03:25.660Z,1.45
2022-07-31T19:05:53.085Z,0.93
2022-07-31T19:08:20.086Z,1.13
2022-07-31T19:10:49.109Z,1.30
2022-07-31T19:13:19.017Z,0.93
2022-07-31T19:15:46.617Z,0.80
2022-07-31T19:18:14.150Z,0.90
2022-07-31T19:20:58.772Z,1.00
2022-07-31T19:23:28.326Z,1.40
2022-07-31T19:26:04.015Z,1.42
2022-07-31T19:28:34.436Z,1.35
2022-07-31T19:31:00.855Z,1.38
2022-07-31T19:33:27.328Z,1.23
2022-07-31T19:36:00.388Z,1.17
2022-07-31T19:38:28.135Z,1.60
2022-07-31T19:40:54.708Z,1.45
2022-07-31T19:43:21.157Z,1.38
2022-07-31T19:46:10.741Z,1.40
2022-07-31T19:48:35.230Z,1.50
2022-07-31T19:51:01.721Z,1.40
2022-07-31T19:53:28.224Z,1.13
2022-07-31T19:55:54.597Z,1.10
2022-07-31T19:58:21.693Z,1.00
2022-07-31T20:00:48.144Z,0.88
2022-07-31T20:03:14.630Z,1.20
2022-07-31T20:05:41.192Z,1.20
2022-07-31T20:08:07.861Z,1.48
2022-07-31T20:10:34.312Z,1.00
2022-07-31T20:13:00.822Z,1.02
2022-07-31T20:15:27.483Z,1.10
2022-07-31T20:18:23.272Z,1.10
2022-07-31T20:20:56.706Z,1.15
2022-07-31T20:23:23.608Z,0.90
2022-07-31T20:25:50.006Z,1.13
2022-07-31T20:28:16.503Z,1.10
2022-07-31T20:30:42.970Z,1.48
2022-07-31T20:33:11.378Z,1.13
2022-07-31T20:35:49.341Z,1.08
2022-07-31T20:38:20.122Z,1.10
2022-07-31T20:40:53.328Z,1.33
2022-07-31T20:43:25.865Z,1.10
2022-07-31T20:45:52.595Z,1.00
2022-07-31T20:48:20.928Z,1.38
2022-07-31T20:50:48.262Z,1.48
2022-07-31T20:53:15.592Z,1.42
2022-07-31T20:55:46.664Z,1.38
2022-07-31T20:58:13.356Z,1.55
2022-07-31T21:00:40.186Z,1.20
2022-07-31T21:03:06.770Z,1.30
2022-07-31T21:05:33.203Z,1.38
2022-07-31T21:08:04.927Z,1.67
2022-07-31T21:10:31.451Z,1.55
2022-07-31T21:12:58.017Z,1.30
2022-07-31T21:15:41.593Z,1.45
2022-07-31T21:18:11.903Z,1.67
2022-07-31T21:20:51.383Z,1.67
2022-07-31T21:23:23.783Z,1.25
2022-07-31T21:25:53.654Z,1.27
2022-07-31T21:28:20.295Z,1.23
2022-07-31T21:30:47.123Z,1.70
2022-07-31T21:33:13.611Z,1.08
2022-07-31T21:35:40.704Z,1.40
2022-07-31T21:38:11.957Z,1.27
2022-07-31T21:40:39.099Z,1.45
2022-07-31T21:43:05.884Z,1.63
2022-07-31T21:45:45.666Z,1.67
2022-07-31T21:48:19.306Z,1.20
2022-07-31T21:50:46.275Z,1.48
2022-07-31T21:53:14.242Z,1.38
2022-07-31T21:55:41.009Z,1.80
2022-07-31T21:58:08.221Z,1.73
2022-07-31T22:00:34.918Z,1.85
2022-07-31T22:03:02.956Z,1.75
2022-07-31T22:05:48.043Z,1.58
2022-07-31T22:08:15.268Z,1.23
2022-07-31T22:10:41.735Z,1.40
2022-07-31T22:13:08.253Z,1.52
2022-07-31T22:15:51.349Z,2.22
2022-07-31T22:18:21.099Z,1.90
2022-07-31T22:20:47.699Z,1.20
2022-07-31T22:23:14.367Z,1.80
2022-07-31T22:25:41.014Z,1.65
2022-07-31T22:28:07.503Z,2.10
2022-07-31T22:30:34.011Z,1.83
2022-07-31T22:33:00.561Z,1.90
2022-07-31T22:35:28.550Z,1.88
2022-07-31T22:37:55.065Z,1.60
2022-07-31T22:40:22.607Z,1.90
2022-07-31T22:42:56.241Z,1.63
2022-07-31T22:45:24.146Z,1.80
2022-07-31T22:47:50.770Z,1.65
2022-07-31T22:50:17.288Z,1.95
2022-07-31T22:52:44.073Z,2.00
2022-07-31T22:55:11.522Z,1.85
2022-07-31T22:57:38.140Z,2.00
2022-07-31T23:00:07.407Z,1.70
2022-07-31T23:02:33.910Z,2.10
2022-07-31T23:05:00.369Z,1.80
2022-07-31T23:07:26.956Z,2.15
2022-07-31T23:09:53.402Z,1.98
2022-07-31T23:12:19.819Z,2.03
2022-07-31T23:14:46.295Z,1.65
2022-07-31T23:17:23.327Z,1.75
2022-07-31T23:19:53.901Z,1.60
2022-07-31T23:22:33.031Z,2.17
2022-07-31T23:25:00.131Z,1.73
2022-07-31T23:27:26.608Z,1.85
2022-07-31T23:29:53.181Z,2.15
2022-07-31T23:32:19.628Z,2.20
2022-07-31T23:34:46.072Z,1.88
2022-07-31T23:37:13.611Z,1.60
2022-07-31T23:39:40.065Z,1.88
2022-07-31T23:42:25.365Z,2.20
2022-07-31T23:44:51.819Z,2.20
2022-07-31T23:47:18.893Z,1.98
2022-07-31T23:49:46.353Z,2.08
2022-07-31T23:52:12.774Z,1.85
2022-07-31T23:54:39.226Z,1.63
2022-07-31T23:57:05.651Z,1.90
2022-07-31T23:59:32.041Z,2.53
